sensor_id;sensor_type;location;lat;lon;timestamp;P1;durP1;ratioP1;P2;durP2;ratioP2
56285;SDS011;42191;47.562;9.686;2023-05-31T00:01:32;33.28;;;31.00;;
56285;SDS011;42191;47.562;9.686;2023-05-31T00:03:58;34.28;;;31.70;;
56285;SDS011;42191;47.562;9.686;2023-05-31T00:06:24;34.38;;;31.90;;
56285;SDS011;42191;47.562;9.686;2023-05-31T00:08:50;33.15;;;30.90;;
56285;SDS011;42191;47.562;9.686;2023-05-31T00:11:16;34.15;;;31.83;;
56285;SDS011;42191;47.562;9.686;2023-05-31T00:13:42;33.80;;;31.60;;
56285;SDS011;42191;47.562;9.686;2023-05-31T00:16:09;33.92;;;31.45;;
56285;SDS011;42191;47.562;9.686;2023-05-31T00:18:35;34.65;;;32.35;;
56285;SDS011;42191;47.562;9.686;2023-05-31T00:21:02;35.85;;;33.28;;
56285;SDS011;42191;47.562;9.686;2023-05-31T00:23:28;32.40;;;30.20;;
56285;SDS011;42191;47.562;9.686;2023-05-31T00:25:55;31.80;;;29.70;;
56285;SDS011;42191;47.562;9.686;2023-05-31T00:28:21;35.42;;;33.05;;
56285;SDS011;42191;47.562;9.686;2023-05-31T00:30:47;34.80;;;32.17;;
56285;SDS011;42191;47.562;9.686;2023-05-31T00:33:13;35.70;;;33.30;;
56285;SDS011;42191;47.562;9.686;2023-05-31T00:35:39;33.70;;;31.45;;
56285;SDS011;42191;47.562;9.686;2023-05-31T00:38:05;33.63;;;31.42;;
56285;SDS011;42191;47.562;9.686;2023-05-31T00:40:32;35.03;;;32.63;;
56285;SDS011;42191;47.562;9.686;2023-05-31T00:42:58;34.22;;;31.95;;
56285;SDS011;42191;47.562;9.686;2023-05-31T00:45:25;33.88;;;31.67;;
56285;SDS011;42191;47.562;9.686;2023-05-31T00:47:51;33.88;;;31.42;;
56285;SDS011;42191;47.562;9.686;2023-05-31T00:50:17;34.03;;;31.52;;
56285;SDS011;42191;47.562;9.686;2023-05-31T00:52:44;34.97;;;32.78;;
56285;SDS011;42191;47.562;9.686;2023-05-31T00:55:12;37.78;;;35.17;;
56285;SDS011;42191;47.562;9.686;2023-05-31T00:57:40;34.50;;;32.03;;
56285;SDS011;42191;47.562;9.686;2023-05-31T01:00:06;33.92;;;31.70;;
56285;SDS011;42191;47.562;9.686;2023-05-31T01:02:34;32.08;;;29.90;;
56285;SDS011;42191;47.562;9.686;2023-05-31T01:05:03;35.22;;;32.63;;
56285;SDS011;42191;47.562;9.686;2023-05-31T01:07:30;33.13;;;30.73;;
56285;SDS011;42191;47.562;9.686;2023-05-31T01:09:56;36.00;;;33.60;;
56285;SDS011;42191;47.562;9.686;2023-05-31T01:12:27;35.40;;;33.00;;
56285;SDS011;42191;47.562;9.686;2023-05-31T01:15:06;35.72;;;33.42;;
56285;SDS011;42191;47.562;9.686;2023-05-31T01:18:14;34.85;;;32.55;;
56285;SDS011;42191;47.562;9.686;2023-05-31T01:20:44;36.95;;;34.45;;
56285;SDS011;42191;47.562;9.686;2023-05-31T01:28:50;34.80;;;32.60;;
56285;SDS011;42191;47.562;9.686;2023-05-31T01:31:21;35.95;;;33.55;;
56285;SDS011;42191;47.562;9.686;2023-05-31T01:33:48;34.75;;;31.98;;
56285;SDS011;42191;47.562;9.686;2023-05-31T01:36:15;36.67;;;34.38;;
56285;SDS011;42191;47.562;9.686;2023-05-31T01:38:41;34.75;;;32.25;;
56285;SDS011;42191;47.562;9.686;2023-05-31T01:41:07;35.15;;;32.67;;
56285;SDS011;42191;47.562;9.686;2023-05-31T01:43:39;35.33;;;33.03;;
56285;SDS011;42191;47.562;9.686;2023-05-31T01:46:06;34.53;;;32.33;;
56285;SDS011;42191;47.562;9.686;2023-05-31T01:48:34;34.05;;;31.70;;
56285;SDS011;42191;47.562;9.686;2023-05-31T01:51:01;35.40;;;33.08;;
56285;SDS011;42191;47.562;9.686;2023-05-31T01:53:31;35.60;;;33.13;;
56285;SDS011;42191;47.562;9.686;2023-05-31T01:55:57;35.13;;;32.47;;
56285;SDS011;42191;47.562;9.686;2023-05-31T01:58:24;36.10;;;33.47;;
56285;SDS011;42191;47.562;9.686;2023-05-31T02:00:52;33.95;;;31.75;;
56285;SDS011;42191;47.562;9.686;2023-05-31T02:03:19;35.90;;;33.38;;
56285;SDS011;42191;47.562;9.686;2023-05-31T02:05:55;33.47;;;31.25;;
56285;SDS011;42191;47.562;9.686;2023-05-31T02:08:22;36.00;;;33.63;;
56285;SDS011;42191;47.562;9.686;2023-05-31T02:10:49;33.83;;;31.13;;
56285;SDS011;42191;47.562;9.686;2023-05-31T02:13:16;35.92;;;33.35;;
56285;SDS011;42191;47.562;9.686;2023-05-31T02:15:48;35.75;;;33.35;;
56285;SDS011;42191;47.562;9.686;2023-05-31T02:18:15;34.58;;;32.17;;
56285;SDS011;42191;47.562;9.686;2023-05-31T02:20:42;36.88;;;34.47;;
56285;SDS011;42191;47.562;9.686;2023-05-31T02:23:09;35.35;;;32.85;;
56285;SDS011;42191;47.562;9.686;2023-05-31T02:25:35;36.13;;;33.80;;
56285;SDS011;42191;47.562;9.686;2023-05-31T02:28:01;36.50;;;34.10;;
56285;SDS011;42191;47.562;9.686;2023-05-31T02:30:28;34.50;;;32.20;;
56285;SDS011;42191;47.562;9.686;2023-05-31T02:32:55;33.55;;;31.05;;
56285;SDS011;42191;47.562;9.686;2023-05-31T02:35:21;34.08;;;31.63;;
56285;SDS011;42191;47.562;9.686;2023-05-31T02:37:48;35.85;;;33.35;;
56285;SDS011;42191;47.562;9.686;2023-05-31T02:40:14;35.88;;;33.47;;
56285;SDS011;42191;47.562;9.686;2023-05-31T02:42:41;33.20;;;31.08;;
56285;SDS011;42191;47.562;9.686;2023-05-31T02:45:07;34.67;;;32.38;;
56285;SDS011;42191;47.562;9.686;2023-05-31T02:47:35;36.40;;;34.10;;
56285;SDS011;42191;47.562;9.686;2023-05-31T02:50:04;36.17;;;33.67;;
56285;SDS011;42191;47.562;9.686;2023-05-31T02:52:32;37.10;;;34.60;;
56285;SDS011;42191;47.562;9.686;2023-05-31T02:55:02;35.00;;;32.60;;
56285;SDS011;42191;47.562;9.686;2023-05-31T02:57:29;36.75;;;34.25;;
56285;SDS011;42191;47.562;9.686;2023-05-31T03:00:01;37.88;;;35.30;;
56285;SDS011;42191;47.562;9.686;2023-05-31T03:02:38;34.85;;;32.55;;
56285;SDS011;42191;47.562;9.686;2023-05-31T03:05:05;36.47;;;33.92;;
56285;SDS011;42191;47.562;9.686;2023-05-31T03:07:33;37.10;;;34.45;;
56285;SDS011;42191;47.562;9.686;2023-05-31T03:10:00;37.13;;;34.53;;
56285;SDS011;42191;47.562;9.686;2023-05-31T03:12:29;33.30;;;31.10;;
56285;SDS011;42191;47.562;9.686;2023-05-31T03:14:55;36.35;;;33.95;;
56285;SDS011;42191;47.562;9.686;2023-05-31T03:17:21;37.92;;;35.17;;
56285;SDS011;42191;47.562;9.686;2023-05-31T03:19:47;38.80;;;36.05;;
56285;SDS011;42191;47.562;9.686;2023-05-31T03:22:14;37.60;;;35.00;;
56285;SDS011;42191;47.562;9.686;2023-05-31T03:24:40;36.40;;;34.00;;
56285;SDS011;42191;47.562;9.686;2023-05-31T03:27:06;36.72;;;34.33;;
56285;SDS011;42191;47.562;9.686;2023-05-31T03:29:33;34.58;;;31.83;;
56285;SDS011;42191;47.562;9.686;2023-05-31T03:32:02;35.97;;;33.50;;
56285;SDS011;42191;47.562;9.686;2023-05-31T03:34:28;35.70;;;33.40;;
56285;SDS011;42191;47.562;9.686;2023-05-31T03:36:54;35.63;;;33.08;;
56285;SDS011;42191;47.562;9.686;2023-05-31T03:39:20;37.42;;;34.88;;
56285;SDS011;42191;47.562;9.686;2023-05-31T03:41:46;35.30;;;33.03;;
56285;SDS011;42191;47.562;9.686;2023-05-31T03:44:13;36.95;;;34.35;;
56285;SDS011;42191;47.562;9.686;2023-05-31T03:46:39;34.25;;;31.90;;
56285;SDS011;42191;47.562;9.686;2023-05-31T03:49:05;38.05;;;35.13;;
56285;SDS011;42191;47.562;9.686;2023-05-31T03:51:31;36.60;;;34.03;;
56285;SDS011;42191;47.562;9.686;2023-05-31T03:53:57;36.50;;;34.05;;
56285;SDS011;42191;47.562;9.686;2023-05-31T03:56:23;35.72;;;33.33;;
56285;SDS011;42191;47.562;9.686;2023-05-31T03:58:50;37.15;;;34.65;;
56285;SDS011;42191;47.562;9.686;2023-05-31T04:01:16;36.30;;;33.80;;
56285;SDS011;42191;47.562;9.686;2023-05-31T04:03:43;35.45;;;33.03;;
56285;SDS011;42191;47.562;9.686;2023-05-31T04:06:09;37.08;;;34.55;;
56285;SDS011;42191;47.562;9.686;2023-05-31T04:08:35;37.10;;;34.20;;
56285;SDS011;42191;47.562;9.686;2023-05-31T04:11:02;37.85;;;35.15;;
56285;SDS011;42191;47.562;9.686;2023-05-31T04:13:28;33.63;;;31.13;;
56285;SDS011;42191;47.562;9.686;2023-05-31T04:15:54;36.60;;;34.13;;
56285;SDS011;42191;47.562;9.686;2023-05-31T04:18:20;36.25;;;33.75;;
56285;SDS011;42191;47.562;9.686;2023-05-31T04:20:46;36.78;;;34.20;;
56285;SDS011;42191;47.562;9.686;2023-05-31T04:23:12;36.33;;;33.92;;
56285;SDS011;42191;47.562;9.686;2023-05-31T04:25:38;36.08;;;33.58;;
56285;SDS011;42191;47.562;9.686;2023-05-31T04:28:05;36.45;;;34.13;;
56285;SDS011;42191;47.562;9.686;2023-05-31T04:30:31;34.80;;;32.60;;
56285;SDS011;42191;47.562;9.686;2023-05-31T04:32:58;35.20;;;32.90;;
56285;SDS011;42191;47.562;9.686;2023-05-31T04:35:24;37.47;;;34.97;;
56285;SDS011;42191;47.562;9.686;2023-05-31T04:37:54;36.65;;;34.05;;
56285;SDS011;42191;47.562;9.686;2023-05-31T04:40:24;35.40;;;33.00;;
56285;SDS011;42191;47.562;9.686;2023-05-31T04:42:51;37.35;;;34.85;;
56285;SDS011;42191;47.562;9.686;2023-05-31T04:45:17;36.72;;;34.30;;
56285;SDS011;42191;47.562;9.686;2023-05-31T04:47:43;37.28;;;34.78;;
56285;SDS011;42191;47.562;9.686;2023-05-31T04:50:14;35.78;;;33.40;;
56285;SDS011;42191;47.562;9.686;2023-05-31T04:52:40;37.80;;;35.30;;
56285;SDS011;42191;47.562;9.686;2023-05-31T04:55:07;37.28;;;34.53;;
56285;SDS011;42191;47.562;9.686;2023-05-31T04:57:33;37.50;;;34.90;;
56285;SDS011;42191;47.562;9.686;2023-05-31T04:59:59;36.35;;;33.90;;
56285;SDS011;42191;47.562;9.686;2023-05-31T05:02:25;37.35;;;34.78;;
56285;SDS011;42191;47.562;9.686;2023-05-31T05:04:52;35.75;;;33.17;;
56285;SDS011;42191;47.562;9.686;2023-05-31T05:07:18;36.88;;;34.47;;
56285;SDS011;42191;47.562;9.686;2023-05-31T05:09:45;35.00;;;32.70;;
56285;SDS011;42191;47.562;9.686;2023-05-31T05:12:11;35.40;;;33.05;;
56285;SDS011;42191;47.562;9.686;2023-05-31T05:14:38;36.08;;;33.63;;
56285;SDS011;42191;47.562;9.686;2023-05-31T05:17:04;38.33;;;35.75;;
56285;SDS011;42191;47.562;9.686;2023-05-31T05:19:30;37.17;;;34.53;;
56285;SDS011;42191;47.562;9.686;2023-05-31T05:21:57;34.17;;;31.63;;
56285;SDS011;42191;47.562;9.686;2023-05-31T05:24:23;36.92;;;34.42;;
56285;SDS011;42191;47.562;9.686;2023-05-31T05:26:50;35.13;;;32.85;;
56285;SDS011;42191;47.562;9.686;2023-05-31T05:29:16;35.17;;;32.75;;
56285;SDS011;42191;47.562;9.686;2023-05-31T05:31:42;35.63;;;33.20;;
56285;SDS011;42191;47.562;9.686;2023-05-31T05:34:09;35.13;;;32.72;;
56285;SDS011;42191;47.562;9.686;2023-05-31T05:36:35;35.17;;;32.78;;
56285;SDS011;42191;47.562;9.686;2023-05-31T05:39:04;35.67;;;33.30;;
56285;SDS011;42191;47.562;9.686;2023-05-31T05:41:31;35.38;;;33.03;;
56285;SDS011;42191;47.562;9.686;2023-05-31T05:43:57;34.95;;;32.60;;
56285;SDS011;42191;47.562;9.686;2023-05-31T05:46:24;35.53;;;33.20;;
56285;SDS011;42191;47.562;9.686;2023-05-31T05:48:50;37.00;;;34.45;;
56285;SDS011;42191;47.562;9.686;2023-05-31T05:51:16;34.80;;;32.53;;
56285;SDS011;42191;47.562;9.686;2023-05-31T05:53:42;35.97;;;33.38;;
56285;SDS011;42191;47.562;9.686;2023-05-31T05:56:08;35.75;;;33.42;;
56285;SDS011;42191;47.562;9.686;2023-05-31T05:58:36;36.40;;;33.80;;
56285;SDS011;42191;47.562;9.686;2023-05-31T06:01:02;36.20;;;33.80;;
56285;SDS011;42191;47.562;9.686;2023-05-31T06:03:28;35.00;;;32.70;;
56285;SDS011;42191;47.562;9.686;2023-05-31T06:05:55;36.13;;;33.25;;
56285;SDS011;42191;47.562;9.686;2023-05-31T06:08:21;35.47;;;32.88;;
56285;SDS011;42191;47.562;9.686;2023-05-31T06:10:47;34.78;;;32.45;;
56285;SDS011;42191;47.562;9.686;2023-05-31T06:13:13;37.33;;;34.72;;
56285;SDS011;42191;47.562;9.686;2023-05-31T06:15:40;34.22;;;32.00;;
56285;SDS011;42191;47.562;9.686;2023-05-31T06:18:06;36.92;;;34.53;;
56285;SDS011;42191;47.562;9.686;2023-05-31T06:20:33;33.30;;;30.98;;
56285;SDS011;42191;47.562;9.686;2023-05-31T06:22:59;36.15;;;33.75;;
56285;SDS011;42191;47.562;9.686;2023-05-31T06:25:25;36.78;;;34.28;;
56285;SDS011;42191;47.562;9.686;2023-05-31T06:27:52;33.95;;;31.45;;
56285;SDS011;42191;47.562;9.686;2023-05-31T06:30:18;35.72;;;33.22;;
56285;SDS011;42191;47.562;9.686;2023-05-31T06:35:12;35.30;;;33.00;;
56285;SDS011;42191;47.562;9.686;2023-05-31T06:37:39;35.38;;;33.00;;
56285;SDS011;42191;47.562;9.686;2023-05-31T06:40:05;35.75;;;33.35;;
56285;SDS011;42191;47.562;9.686;2023-05-31T06:42:33;35.30;;;32.88;;
56285;SDS011;42191;47.562;9.686;2023-05-31T06:44:59;34.72;;;32.33;;
56285;SDS011;42191;47.562;9.686;2023-05-31T06:47:26;35.28;;;32.95;;
56285;SDS011;42191;47.562;9.686;2023-05-31T06:49:52;34.05;;;31.65;;
56285;SDS011;42191;47.562;9.686;2023-05-31T06:52:18;34.38;;;32.08;;
56285;SDS011;42191;47.562;9.686;2023-05-31T06:54:44;34.13;;;31.75;;
56285;SDS011;42191;47.562;9.686;2023-05-31T06:57:11;33.10;;;30.98;;
56285;SDS011;42191;47.562;9.686;2023-05-31T06:59:37;35.10;;;32.67;;
56285;SDS011;42191;47.562;9.686;2023-05-31T07:02:03;34.28;;;31.98;;
56285;SDS011;42191;47.562;9.686;2023-05-31T07:04:29;34.17;;;31.77;;
56285;SDS011;42191;47.562;9.686;2023-05-31T07:06:55;31.83;;;29.73;;
56285;SDS011;42191;47.562;9.686;2023-05-31T07:09:22;34.85;;;32.63;;
56285;SDS011;42191;47.562;9.686;2023-05-31T07:11:48;33.50;;;31.27;;
56285;SDS011;42191;47.562;9.686;2023-05-31T07:14:14;35.10;;;32.63;;
56285;SDS011;42191;47.562;9.686;2023-05-31T07:16:40;35.40;;;32.80;;
56285;SDS011;42191;47.562;9.686;2023-05-31T07:19:06;33.47;;;31.17;;
56285;SDS011;42191;47.562;9.686;2023-05-31T07:21:33;33.08;;;30.73;;
56285;SDS011;42191;47.562;9.686;2023-05-31T07:23:59;33.63;;;31.20;;
56285;SDS011;42191;47.562;9.686;2023-05-31T07:26:25;33.58;;;31.35;;
56285;SDS011;42191;47.562;9.686;2023-05-31T07:28:51;35.30;;;33.00;;
56285;SDS011;42191;47.562;9.686;2023-05-31T07:31:18;34.05;;;31.65;;
56285;SDS011;42191;47.562;9.686;2023-05-31T07:33:45;34.35;;;32.05;;
56285;SDS011;42191;47.562;9.686;2023-05-31T07:36:11;31.23;;;29.02;;
56285;SDS011;42191;47.562;9.686;2023-05-31T07:38:37;34.33;;;32.00;;
56285;SDS011;42191;47.562;9.686;2023-05-31T07:41:03;34.03;;;31.73;;
56285;SDS011;42191;47.562;9.686;2023-05-31T07:43:30;34.60;;;32.35;;
56285;SDS011;42191;47.562;9.686;2023-05-31T07:45:57;33.35;;;31.10;;
56285;SDS011;42191;47.562;9.686;2023-05-31T07:48:23;34.53;;;32.20;;
56285;SDS011;42191;47.562;9.686;2023-05-31T07:50:50;35.38;;;32.72;;
56285;SDS011;42191;47.562;9.686;2023-05-31T07:53:16;34.53;;;32.22;;
56285;SDS011;42191;47.562;9.686;2023-05-31T07:55:45;35.20;;;32.65;;
56285;SDS011;42191;47.562;9.686;2023-05-31T07:58:12;33.85;;;31.50;;
56285;SDS011;42191;47.562;9.686;2023-05-31T08:00:39;32.65;;;30.35;;
56285;SDS011;42191;47.562;9.686;2023-05-31T08:03:05;32.42;;;30.23;;
56285;SDS011;42191;47.562;9.686;2023-05-31T08:05:31;34.05;;;31.52;;
56285;SDS011;42191;47.562;9.686;2023-05-31T08:07:58;34.47;;;32.17;;
56285;SDS011;42191;47.562;9.686;2023-05-31T08:10:24;32.08;;;30.00;;
56285;SDS011;42191;47.562;9.686;2023-05-31T08:12:50;33.03;;;30.52;;
56285;SDS011;42191;47.562;9.686;2023-05-31T08:15:17;34.67;;;32.38;;
56285;SDS011;42191;47.562;9.686;2023-05-31T08:17:43;31.70;;;29.48;;
56285;SDS011;42191;47.562;9.686;2023-05-31T08:20:11;32.95;;;30.77;;
56285;SDS011;42191;47.562;9.686;2023-05-31T08:22:41;32.75;;;30.58;;
56285;SDS011;42191;47.562;9.686;2023-05-31T08:25:09;33.33;;;30.88;;
56285;SDS011;42191;47.562;9.686;2023-05-31T08:27:38;31.25;;;29.15;;
56285;SDS011;42191;47.562;9.686;2023-05-31T08:30:10;33.60;;;31.20;;
56285;SDS011;42191;47.562;9.686;2023-05-31T08:32:37;33.40;;;31.10;;
56285;SDS011;42191;47.562;9.686;2023-05-31T08:35:04;32.55;;;30.15;;
56285;SDS011;42191;47.562;9.686;2023-05-31T08:37:34;33.03;;;30.75;;
56285;SDS011;42191;47.562;9.686;2023-05-31T08:40:01;34.50;;;32.13;;
56285;SDS011;42191;47.562;9.686;2023-05-31T08:42:30;34.63;;;32.17;;
56285;SDS011;42191;47.562;9.686;2023-05-31T08:45:05;33.67;;;31.38;;
56285;SDS011;42191;47.562;9.686;2023-05-31T08:47:38;33.45;;;31.15;;
56285;SDS011;42191;47.562;9.686;2023-05-31T08:50:09;34.00;;;31.75;;
56285;SDS011;42191;47.562;9.686;2023-05-31T08:52:36;33.13;;;30.85;;
56285;SDS011;42191;47.562;9.686;2023-05-31T08:55:04;33.40;;;31.10;;
56285;SDS011;42191;47.562;9.686;2023-05-31T08:57:30;34.72;;;32.33;;
56285;SDS011;42191;47.562;9.686;2023-05-31T08:59:58;33.13;;;30.83;;
56285;SDS011;42191;47.562;9.686;2023-05-31T09:02:33;34.22;;;31.77;;
56285;SDS011;42191;47.562;9.686;2023-05-31T09:05:00;33.67;;;31.17;;
56285;SDS011;42191;47.562;9.686;2023-05-31T09:07:26;33.88;;;31.67;;
56285;SDS011;42191;47.562;9.686;2023-05-31T09:09:52;31.60;;;29.30;;
56285;SDS011;42191;47.562;9.686;2023-05-31T09:12:18;34.42;;;31.77;;
56285;SDS011;42191;47.562;9.686;2023-05-31T09:14:44;34.75;;;32.25;;
56285;SDS011;42191;47.562;9.686;2023-05-31T09:17:11;34.30;;;31.95;;
56285;SDS011;42191;47.562;9.686;2023-05-31T09:19:40;34.67;;;32.28;;
56285;SDS011;42191;47.562;9.686;2023-05-31T09:22:14;35.63;;;33.08;;
56285;SDS011;42191;47.562;9.686;2023-05-31T09:24:48;34.10;;;31.63;;
56285;SDS011;42191;47.562;9.686;2023-05-31T09:27:16;33.47;;;30.98;;
56285;SDS011;42191;47.562;9.686;2023-05-31T09:29:42;33.65;;;31.35;;
56285;SDS011;42191;47.562;9.686;2023-05-31T09:32:17;35.33;;;32.88;;
56285;SDS011;42191;47.562;9.686;2023-05-31T09:34:43;32.83;;;30.52;;
56285;SDS011;42191;47.562;9.686;2023-05-31T09:37:10;34.97;;;32.45;;
56285;SDS011;42191;47.562;9.686;2023-05-31T09:39:54;33.47;;;30.75;;
56285;SDS011;42191;47.562;9.686;2023-05-31T09:42:21;34.28;;;31.98;;
56285;SDS011;42191;47.562;9.686;2023-05-31T09:44:52;33.88;;;31.48;;
56285;SDS011;42191;47.562;9.686;2023-05-31T09:47:24;33.58;;;31.25;;
56285;SDS011;42191;47.562;9.686;2023-05-31T09:52:22;32.45;;;30.35;;
56285;SDS011;42191;47.562;9.686;2023-05-31T09:54:52;33.70;;;31.10;;
56285;SDS011;42191;47.562;9.686;2023-05-31T09:57:37;34.28;;;31.88;;
56285;SDS011;42191;47.562;9.686;2023-05-31T10:00:06;33.58;;;31.27;;
56285;SDS011;42191;47.562;9.686;2023-05-31T10:02:44;33.30;;;31.05;;
56285;SDS011;42191;47.562;9.686;2023-05-31T10:05:18;32.55;;;30.35;;
56285;SDS011;42191;47.562;9.686;2023-05-31T10:07:50;32.50;;;30.30;;
56285;SDS011;42191;47.562;9.686;2023-05-31T10:12:51;34.08;;;31.70;;
56285;SDS011;42191;47.562;9.686;2023-05-31T10:15:26;33.65;;;31.15;;
56285;SDS011;42191;47.562;9.686;2023-05-31T10:18:00;32.47;;;30.00;;
56285;SDS011;42191;47.562;9.686;2023-05-31T10:20:48;33.97;;;31.73;;
56285;SDS011;42191;47.562;9.686;2023-05-31T10:23:23;33.95;;;31.65;;
56285;SDS011;42191;47.562;9.686;2023-05-31T10:28:36;32.63;;;30.38;;
56285;SDS011;42191;47.562;9.686;2023-05-31T10:31:06;32.83;;;30.63;;
56285;SDS011;42191;47.562;9.686;2023-05-31T10:33:36;31.42;;;29.38;;
56285;SDS011;42191;47.562;9.686;2023-05-31T10:36:04;31.73;;;29.48;;
56285;SDS011;42191;47.562;9.686;2023-05-31T10:38:35;33.78;;;31.55;;
56285;SDS011;42191;47.562;9.686;2023-05-31T10:41:12;30.40;;;28.38;;
56285;SDS011;42191;47.562;9.686;2023-05-31T10:43:44;32.45;;;30.15;;
56285;SDS011;42191;47.562;9.686;2023-05-31T10:46:26;32.15;;;29.85;;
56285;SDS011;42191;47.562;9.686;2023-05-31T10:48:56;30.70;;;28.63;;
56285;SDS011;42191;47.562;9.686;2023-05-31T10:51:37;32.00;;;29.92;;
56285;SDS011;42191;47.562;9.686;2023-05-31T10:54:04;32.08;;;29.88;;
56285;SDS011;42191;47.562;9.686;2023-05-31T10:56:31;30.63;;;28.52;;
56285;SDS011;42191;47.562;9.686;2023-05-31T10:58:57;30.25;;;28.25;;
56285;SDS011;42191;47.562;9.686;2023-05-31T11:01:23;31.63;;;29.40;;
56285;SDS011;42191;47.562;9.686;2023-05-31T11:03:54;33.05;;;30.80;;
56285;SDS011;42191;47.562;9.686;2023-05-31T11:06:24;32.10;;;30.05;;
56285;SDS011;42191;47.562;9.686;2023-05-31T11:08:56;31.85;;;29.65;;
56285;SDS011;42191;47.562;9.686;2023-05-31T11:19:25;31.65;;;29.10;;
56285;SDS011;42191;47.562;9.686;2023-05-31T11:21:57;31.52;;;29.20;;
56285;SDS011;42191;47.562;9.686;2023-05-31T11:27:17;30.77;;;28.75;;
56285;SDS011;42191;47.562;9.686;2023-05-31T11:32:14;30.25;;;28.15;;
56285;SDS011;42191;47.562;9.686;2023-05-31T11:34:50;29.60;;;27.50;;
56285;SDS011;42191;47.562;9.686;2023-05-31T11:37:19;30.13;;;27.98;;
56285;SDS011;42191;47.562;9.686;2023-05-31T11:39:46;32.00;;;29.73;;
56285;SDS011;42191;47.562;9.686;2023-05-31T11:42:15;31.25;;;29.13;;
56285;SDS011;42191;47.562;9.686;2023-05-31T11:44:42;30.52;;;28.15;;
56285;SDS011;42191;47.562;9.686;2023-05-31T11:47:11;30.35;;;28.33;;
56285;SDS011;42191;47.562;9.686;2023-05-31T11:49:50;29.75;;;27.60;;
56285;SDS011;42191;47.562;9.686;2023-05-31T11:52:17;28.95;;;26.88;;
56285;SDS011;42191;47.562;9.686;2023-05-31T11:54:45;30.80;;;28.40;;
56285;SDS011;42191;47.562;9.686;2023-05-31T11:57:14;30.48;;;28.40;;
56285;SDS011;42191;47.562;9.686;2023-05-31T11:59:45;28.90;;;26.97;;
56285;SDS011;42191;47.562;9.686;2023-05-31T12:02:12;30.52;;;28.52;;
56285;SDS011;42191;47.562;9.686;2023-05-31T12:04:38;29.33;;;27.25;;
56285;SDS011;42191;47.562;9.686;2023-05-31T12:07:06;31.30;;;29.02;;
56285;SDS011;42191;47.562;9.686;2023-05-31T12:09:42;30.55;;;28.33;;
56285;SDS011;42191;47.562;9.686;2023-05-31T12:12:08;30.25;;;28.23;;
56285;SDS011;42191;47.562;9.686;2023-05-31T12:14:36;31.13;;;28.95;;
56285;SDS011;42191;47.562;9.686;2023-05-31T12:17:03;29.73;;;27.63;;
56285;SDS011;42191;47.562;9.686;2023-05-31T12:19:30;29.90;;;27.52;;
56285;SDS011;42191;47.562;9.686;2023-05-31T12:21:57;30.48;;;28.40;;
56285;SDS011;42191;47.562;9.686;2023-05-31T12:24:23;29.52;;;27.42;;
56285;SDS011;42191;47.562;9.686;2023-05-31T12:26:50;31.13;;;28.73;;
56285;SDS011;42191;47.562;9.686;2023-05-31T12:29:17;29.65;;;27.60;;
56285;SDS011;42191;47.562;9.686;2023-05-31T12:31:43;30.50;;;28.48;;
56285;SDS011;42191;47.562;9.686;2023-05-31T12:34:13;28.85;;;26.90;;
56285;SDS011;42191;47.562;9.686;2023-05-31T12:36:47;30.20;;;28.00;;
56285;SDS011;42191;47.562;9.686;2023-05-31T12:41:44;30.15;;;27.85;;
56285;SDS011;42191;47.562;9.686;2023-05-31T12:44:12;30.40;;;27.85;;
56285;SDS011;42191;47.562;9.686;2023-05-31T12:46:43;27.80;;;26.00;;
56285;SDS011;42191;47.562;9.686;2023-05-31T12:49:13;29.33;;;27.20;;
56285;SDS011;42191;47.562;9.686;2023-05-31T12:52:04;29.27;;;27.38;;
56285;SDS011;42191;47.562;9.686;2023-05-31T12:54:31;29.95;;;28.00;;
56285;SDS011;42191;47.562;9.686;2023-05-31T12:56:59;29.15;;;27.15;;
56285;SDS011;42191;47.562;9.686;2023-05-31T12:59:27;29.15;;;27.15;;
56285;SDS011;42191;47.562;9.686;2023-05-31T13:01:54;29.17;;;27.13;;
56285;SDS011;42191;47.562;9.686;2023-05-31T13:04:21;29.05;;;27.15;;
56285;SDS011;42191;47.562;9.686;2023-05-31T13:06:47;28.25;;;26.30;;
56285;SDS011;42191;47.562;9.686;2023-05-31T13:09:14;27.50;;;25.63;;
56285;SDS011;42191;47.562;9.686;2023-05-31T13:11:44;24.85;;;23.15;;
56285;SDS011;42191;47.562;9.686;2023-05-31T13:14:14;24.77;;;23.02;;
56285;SDS011;42191;47.562;9.686;2023-05-31T13:16:41;24.85;;;23.13;;
56285;SDS011;42191;47.562;9.686;2023-05-31T13:19:07;25.10;;;23.33;;
56285;SDS011;42191;47.562;9.686;2023-05-31T13:21:34;24.08;;;22.58;;
56285;SDS011;42191;47.562;9.686;2023-05-31T13:24:01;23.67;;;21.90;;
56285;SDS011;42191;47.562;9.686;2023-05-31T13:26:28;23.88;;;22.38;;
56285;SDS011;42191;47.562;9.686;2023-05-31T13:28:57;23.95;;;22.35;;
56285;SDS011;42191;47.562;9.686;2023-05-31T13:31:26;23.00;;;21.30;;
56285;SDS011;42191;47.562;9.686;2023-05-31T13:33:53;24.13;;;22.33;;
56285;SDS011;42191;47.562;9.686;2023-05-31T13:36:20;24.48;;;22.70;;
56285;SDS011;42191;47.562;9.686;2023-05-31T13:38:50;23.50;;;22.00;;
56285;SDS011;42191;47.562;9.686;2023-05-31T13:41:17;23.95;;;22.35;;
56285;SDS011;42191;47.562;9.686;2023-05-31T13:43:43;24.05;;;22.35;;
56285;SDS011;42191;47.562;9.686;2023-05-31T13:46:09;23.60;;;22.00;;
56285;SDS011;42191;47.562;9.686;2023-05-31T13:48:36;23.88;;;22.27;;
56285;SDS011;42191;47.562;9.686;2023-05-31T13:51:03;23.92;;;22.25;;
56285;SDS011;42191;47.562;9.686;2023-05-31T13:53:30;23.85;;;22.23;;
56285;SDS011;42191;47.562;9.686;2023-05-31T13:55:56;23.95;;;22.10;;
56285;SDS011;42191;47.562;9.686;2023-05-31T13:58:22;23.75;;;22.13;;
56285;SDS011;42191;47.562;9.686;2023-05-31T14:00:48;24.40;;;22.63;;
56285;SDS011;42191;47.562;9.686;2023-05-31T14:03:15;22.60;;;21.10;;
56285;SDS011;42191;47.562;9.686;2023-05-31T14:05:41;23.63;;;21.98;;
56285;SDS011;42191;47.562;9.686;2023-05-31T14:08:10;22.65;;;21.15;;
56285;SDS011;42191;47.562;9.686;2023-05-31T14:10:36;24.00;;;22.00;;
56285;SDS011;42191;47.562;9.686;2023-05-31T14:13:03;22.65;;;21.15;;
56285;SDS011;42191;47.562;9.686;2023-05-31T14:15:30;24.13;;;22.10;;
56285;SDS011;42191;47.562;9.686;2023-05-31T14:17:56;23.48;;;21.88;;
56285;SDS011;42191;47.562;9.686;2023-05-31T14:20:22;23.55;;;21.48;;
56285;SDS011;42191;47.562;9.686;2023-05-31T14:22:48;22.65;;;21.15;;
56285;SDS011;42191;47.562;9.686;2023-05-31T14:25:14;23.98;;;22.02;;
56285;SDS011;42191;47.562;9.686;2023-05-31T14:27:40;22.90;;;21.40;;
56285;SDS011;42191;47.562;9.686;2023-05-31T14:30:07;21.75;;;20.17;;
56285;SDS011;42191;47.562;9.686;2023-05-31T14:32:33;23.25;;;21.40;;
56285;SDS011;42191;47.562;9.686;2023-05-31T14:34:59;22.95;;;21.42;;
56285;SDS011;42191;47.562;9.686;2023-05-31T14:37:26;23.25;;;21.77;;
56285;SDS011;42191;47.562;9.686;2023-05-31T14:39:52;23.25;;;21.55;;
56285;SDS011;42191;47.562;9.686;2023-05-31T14:42:18;23.33;;;21.70;;
56285;SDS011;42191;47.562;9.686;2023-05-31T14:44:44;23.30;;;21.70;;
56285;SDS011;42191;47.562;9.686;2023-05-31T14:47:10;23.23;;;21.50;;
56285;SDS011;42191;47.562;9.686;2023-05-31T14:49:36;23.60;;;21.83;;
56285;SDS011;42191;47.562;9.686;2023-05-31T14:52:03;22.25;;;20.65;;
56285;SDS011;42191;47.562;9.686;2023-05-31T14:54:32;23.50;;;21.55;;
56285;SDS011;42191;47.562;9.686;2023-05-31T14:56:59;22.83;;;21.30;;